createdAt,value
2018-05-09T00:01:35.531Z,17.64
2018-05-09T00:04:03.118Z,17.59
2018-05-09T00:06:30.754Z,17.53
2018-05-09T00:08:58.375Z,17.53
2018-05-09T00:11:25.963Z,17.53
2018-05-09T00:13:53.591Z,17.50
2018-05-09T00:16:21.189Z,17.51
2018-05-09T00:18:48.774Z,17.52
2018-05-09T00:21:16.413Z,17.51
2018-05-09T00:23:43.998Z,17.51
2018-05-09T00:26:11.609Z,17.48
2018-05-09T00:28:39.242Z,17.37
2018-05-09T00:31:06.835Z,17.38
2018-05-09T00:33:34.427Z,17.29
2018-05-09T00:36:02.059Z,17.24
2018-05-09T00:38:29.654Z,17.23
2018-05-09T00:40:57.251Z,17.17
2018-05-09T00:43:24.890Z,17.22
2018-05-09T00:45:52.486Z,17.24
2018-05-09T00:48:20.073Z,17.15
2018-05-09T00:50:47.699Z,17.09
2018-05-09T00:53:15.289Z,17.08
2018-05-09T00:55:42.886Z,16.98
2018-05-09T00:58:10.517Z,17.02
2018-05-09T01:00:38.110Z,16.95
2018-05-09T01:03:05.716Z,16.92
2018-05-09T01:05:33.384Z,16.88
2018-05-09T01:08:00.979Z,16.88
2018-05-09T01:10:28.567Z,16.89
2018-05-09T01:12:56.208Z,16.90
2018-05-09T01:15:23.799Z,16.86
2018-05-09T01:17:51.379Z,16.80
2018-05-09T01:20:19.012Z,16.71
2018-05-09T01:22:46.618Z,16.75
2018-05-09T01:25:14.202Z,16.75
2018-05-09T01:27:42.082Z,16.75
2018-05-09T01:30:09.670Z,16.72
2018-05-09T01:32:37.266Z,16.66
2018-05-09T01:35:04.892Z,16.62
2018-05-09T01:37:32.486Z,16.66
2018-05-09T01:40:00.108Z,16.65
2018-05-09T01:42:27.714Z,16.62
2018-05-09T01:44:55.325Z,16.52
2018-05-09T01:47:22.916Z,16.51
2018-05-09T01:49:50.549Z,16.46
2018-05-09T01:52:18.139Z,16.46
2018-05-09T01:54:45.736Z,16.45
2018-05-09T01:57:13.366Z,16.42
2018-05-09T01:59:40.959Z,16.39
2018-05-09T02:02:08.551Z,16.42
2018-05-09T02:04:36.179Z,16.44
2018-05-09T02:07:03.770Z,16.38
2018-05-09T02:09:31.361Z,16.36
2018-05-09T02:11:59.007Z,16.34
2018-05-09T02:14:26.623Z,16.30
2018-05-09T02:16:54.215Z,16.22
2018-05-09T02:19:21.838Z,16.30
2018-05-09T02:21:49.443Z,16.28
2018-05-09T02:24:17.031Z,16.33
2018-05-09T02:26:44.656Z,16.37
2018-05-09T02:29:12.274Z,16.43
2018-05-09T02:31:39.871Z,16.27
2018-05-09T02:34:07.515Z,16.33
2018-05-09T02:36:35.111Z,16.33
2018-05-09T02:39:02.709Z,16.31
2018-05-09T02:41:30.336Z,16.42
2018-05-09T02:43:57.931Z,16.45
2018-05-09T02:46:25.521Z,16.43
2018-05-09T02:48:53.139Z,16.53
2018-05-09T02:51:20.728Z,16.59
2018-05-09T02:53:48.327Z,16.58
2018-05-09T02:56:15.959Z,16.54
2018-05-09T02:58:43.549Z,16.60
2018-05-09T03:01:11.144Z,16.61
2018-05-09T03:03:38.770Z,16.63
2018-05-09T03:06:06.371Z,16.68
2018-05-09T03:08:33.959Z,16.68
2018-05-09T03:11:01.580Z,16.73
2018-05-09T03:13:29.180Z,16.78
2018-05-09T03:15:56.773Z,16.78
2018-05-09T03:18:24.418Z,16.76
2018-05-09T03:20:52.011Z,16.80
2018-05-09T03:23:19.617Z,16.76
2018-05-09T03:25:47.251Z,16.81
2018-05-09T03:28:14.851Z,16.81
2018-05-09T03:30:42.461Z,16.69
2018-05-09T03:33:10.088Z,16.67
2018-05-09T03:35:37.703Z,16.56
2018-05-09T03:38:05.288Z,16.50
2018-05-09T03:40:33.178Z,16.39
2018-05-09T03:43:00.841Z,16.46
2018-05-09T03:45:28.442Z,16.42
2018-05-09T03:47:56.063Z,16.35
2018-05-09T03:50:23.665Z,16.42
2018-05-09T03:52:51.258Z,16.45
2018-05-09T03:55:18.875Z,16.50
2018-05-09T03:57:46.470Z,16.49
2018-05-09T04:00:14.073Z,16.49
2018-05-09T04:02:53.511Z,16.44
2018-05-09T04:05:32.963Z,16.42
2018-05-09T04:08:14.089Z,16.36
2018-05-09T04:10:41.679Z,16.31
2018-05-09T04:13:09.320Z,16.34
2018-05-09T04:15:36.927Z,16.35
2018-05-09T04:18:04.591Z,16.31
2018-05-09T04:20:32.183Z,16.30
2018-05-09T04:22:59.819Z,16.31
2018-05-09T04:25:27.421Z,16.32
2018-05-09T04:27:55.042Z,16.32
2018-05-09T04:30:22.670Z,16.28
2018-05-09T04:32:50.267Z,16.24
2018-05-09T04:35:17.863Z,16.28
2018-05-09T04:37:45.478Z,16.30
2018-05-09T04:40:13.065Z,16.29
2018-05-09T04:42:40.662Z,16.30
2018-05-09T04:45:08.298Z,16.33
2018-05-09T04:47:35.897Z,16.36
2018-05-09T04:50:03.489Z,16.28
2018-05-09T04:52:31.132Z,16.27
2018-05-09T04:54:58.763Z,16.17
2018-05-09T04:57:26.354Z,16.17
2018-05-09T04:59:53.987Z,16.10
2018-05-09T05:02:21.575Z,16.19
2018-05-09T05:04:49.190Z,16.30
2018-05-09T05:07:16.836Z,16.38
2018-05-09T05:09:44.444Z,16.43
2018-05-09T05:12:12.246Z,16.48
2018-05-09T05:14:40.198Z,16.52
2018-05-09T05:17:07.802Z,16.48
2018-05-09T05:19:35.414Z,16.61
2018-05-09T05:22:03.046Z,16.71
2018-05-09T05:24:30.663Z,16.67
2018-05-09T05:26:58.281Z,16.67
2018-05-09T05:29:25.940Z,16.73
2018-05-09T05:31:53.530Z,16.77
2018-05-09T05:34:21.124Z,16.82
2018-05-09T05:36:48.762Z,16.84
2018-05-09T05:39:16.429Z,16.88
2018-05-09T05:41:44.030Z,16.90
2018-05-09T05:44:11.647Z,17.02
2018-05-09T05:46:39.240Z,17.05
2018-05-09T05:49:06.836Z,17.04
2018-05-09T05:51:34.482Z,17.05
2018-05-09T05:54:02.096Z,17.17
2018-05-09T05:56:29.756Z,17.23
2018-05-09T05:58:57.387Z,17.21
2018-05-09T06:01:25.074Z,17.33
2018-05-09T06:03:52.668Z,17.38
2018-05-09T06:06:20.357Z,17.44
2018-05-09T06:08:47.925Z,17.51
2018-05-09T06:11:15.521Z,17.61
2018-05-09T06:13:43.172Z,17.64
2018-05-09T06:16:10.777Z,17.68
2018-05-09T06:18:38.405Z,17.68
2018-05-09T06:21:06.030Z,17.73
2018-05-09T06:23:33.631Z,17.84
2018-05-09T06:26:01.220Z,17.94
2018-05-09T06:28:28.846Z,18.02
2018-05-09T06:30:56.502Z,18.11
2018-05-09T06:33:24.076Z,18.19
2018-05-09T06:35:51.723Z,18.15
2018-05-09T06:38:19.333Z,18.19
2018-05-09T06:40:46.930Z,18.32
2018-05-09T06:43:14.565Z,18.37
2018-05-09T06:45:42.198Z,18.35
2018-05-09T06:48:09.803Z,18.55
2018-05-09T06:50:38.439Z,18.58
2018-05-09T06:53:06.029Z,18.61
2018-05-09T06:55:33.638Z,18.72
2018-05-09T06:58:01.931Z,18.80
2018-05-09T07:00:29.526Z,18.85
2018-05-09T07:02:57.411Z,18.98
2018-05-09T07:05:25.029Z,19.02
2018-05-09T07:07:52.682Z,19.11
2018-05-09T07:10:20.283Z,19.16
2018-05-09T07:12:47.905Z,19.08
2018-05-09T07:15:15.543Z,19.11
2018-05-09T07:17:43.138Z,19.24
2018-05-09T07:20:10.774Z,19.31
2018-05-09T07:22:38.354Z,19.41
2018-05-09T07:25:05.968Z,19.53
2018-05-09T07:27:33.940Z,19.63
2018-05-09T07:30:01.534Z,19.67
2018-05-09T07:32:29.125Z,19.76
2018-05-09T07:34:56.738Z,19.84
2018-05-09T07:37:24.326Z,19.93
2018-05-09T07:39:51.916Z,19.94
2018-05-09T07:42:19.546Z,19.96
2018-05-09T07:44:47.145Z,19.92
2018-05-09T07:47:14.731Z,19.99
2018-05-09T07:49:42.495Z,20.14
2018-05-09T07:52:10.082Z,20.18
2018-05-09T07:54:37.679Z,20.23
2018-05-09T07:57:05.531Z,20.05
2018-05-09T07:59:33.127Z,19.97
2018-05-09T08:02:00.754Z,19.95
2018-05-09T08:04:28.395Z,20.22
2018-05-09T08:06:55.986Z,20.34
2018-05-09T08:09:23.578Z,20.31
2018-05-09T08:11:51.197Z,20.40
2018-05-09T08:14:19.092Z,20.57
2018-05-09T08:16:46.690Z,20.63
2018-05-09T08:19:16.047Z,20.41
2018-05-09T08:21:43.732Z,20.55
2018-05-09T08:24:11.323Z,20.76
2018-05-09T08:26:38.963Z,20.83
2018-05-09T08:29:06.549Z,21.00
2018-05-09T08:31:34.139Z,21.13
2018-05-09T08:34:01.780Z,21.30
2018-05-09T08:36:29.375Z,21.29
2018-05-09T08:38:57.086Z,21.28
2018-05-09T08:41:25.125Z,21.51
2018-05-09T08:43:52.725Z,21.55
2018-05-09T08:46:20.320Z,21.65
2018-05-09T08:48:48.177Z,21.78
2018-05-09T08:51:15.776Z,21.71
2018-05-09T08:53:43.376Z,21.77
2018-05-09T08:56:10.991Z,21.76
2018-05-09T08:58:38.590Z,21.93
2018-05-09T09:01:06.175Z,22.00
2018-05-09T09:03:33.829Z,22.03
2018-05-09T09:06:01.416Z,22.17
2018-05-09T09:08:29.025Z,22.29
2018-05-09T09:10:56.735Z,22.30
2018-05-09T09:13:24.294Z,22.38
2018-05-09T09:15:51.883Z,22.50
2018-05-09T09:18:19.516Z,22.47
2018-05-09T09:20:47.126Z,22.68
2018-05-09T09:23:14.724Z,22.78
2018-05-09T09:25:42.368Z,22.79
2018-05-09T09:28:09.952Z,22.72
2018-05-09T09:30:37.548Z,22.70
2018-05-09T09:33:05.300Z,22.70
2018-05-09T09:35:32.884Z,22.38
2018-05-09T09:38:00.479Z,22.36
2018-05-09T09:40:28.095Z,22.61
2018-05-09T09:42:57.198Z,22.81
2018-05-09T09:45:24.786Z,22.97
2018-05-09T09:47:52.414Z,22.84
2018-05-09T09:50:20.010Z,22.89
2018-05-09T09:52:47.592Z,23.14
2018-05-09T09:55:15.597Z,23.27
2018-05-09T09:57:43.181Z,23.36
2018-05-09T10:00:10.781Z,23.45
2018-05-09T10:02:38.446Z,23.61
2018-05-09T10:05:06.050Z,23.37
2018-05-09T10:07:33.639Z,23.56
2018-05-09T10:10:01.295Z,23.81
2018-05-09T10:12:28.899Z,23.96
2018-05-09T10:14:56.491Z,24.26
2018-05-09T10:17:24.291Z,24.37
2018-05-09T10:19:51.931Z,24.36
2018-05-09T10:22:19.529Z,24.40
2018-05-09T10:24:47.142Z,24.50
2018-05-09T10:27:14.726Z,24.74
2018-05-09T10:29:42.322Z,24.70
2018-05-09T10:32:09.939Z,24.83
2018-05-09T10:34:37.533Z,24.91
2018-05-09T10:37:05.123Z,24.92
2018-05-09T10:39:32.748Z,25.03
2018-05-09T10:42:00.346Z,24.95
2018-05-09T10:44:27.925Z,25.20
2018-05-09T10:46:55.560Z,25.29
2018-05-09T10:49:23.150Z,25.38
2018-05-09T10:51:50.733Z,25.35
2018-05-09T10:54:18.350Z,25.26
2018-05-09T10:56:45.972Z,25.25
2018-05-09T10:59:14.483Z,25.32
2018-05-09T11:01:42.133Z,25.21
2018-05-09T11:04:09.729Z,25.20
2018-05-09T11:06:37.325Z,24.86
2018-05-09T11:09:05.707Z,24.72
2018-05-09T11:11:33.287Z,24.38
2018-05-09T11:14:00.941Z,24.57
2018-05-09T11:16:28.565Z,24.61
2018-05-09T11:18:56.153Z,24.46
2018-05-09T11:21:23.739Z,24.28
2018-05-09T11:23:51.355Z,24.37
2018-05-09T11:26:18.945Z,24.88
2018-05-09T11:28:46.535Z,25.16
2018-05-09T11:31:14.161Z,25.29
2018-05-09T11:33:41.760Z,25.19
2018-05-09T11:36:09.346Z,25.40
2018-05-09T11:38:36.962Z,25.30
2018-05-09T11:41:04.604Z,25.29
2018-05-09T11:43:32.174Z,25.22
2018-05-09T11:45:59.802Z,25.09
2018-05-09T11:48:27.394Z,24.85
2018-05-09T11:50:54.983Z,24.85
2018-05-09T11:53:22.599Z,24.68
2018-05-09T11:55:50.183Z,24.79
2018-05-09T11:58:17.778Z,24.92
2018-05-09T12:00:45.394Z,24.96
2018-05-09T12:03:13.203Z,25.30
2018-05-09T12:05:40.782Z,25.80
2018-05-09T12:08:08.405Z,25.84
2018-05-09T12:10:36.214Z,25.90
2018-05-09T12:13:04.009Z,25.69
2018-05-09T12:15:31.633Z,25.57
2018-05-09T12:17:59.363Z,25.86
2018-05-09T12:20:26.946Z,26.06
2018-05-09T12:22:54.639Z,26.32
2018-05-09T12:25:22.242Z,26.45
2018-05-09T12:27:49.826Z,26.33
2018-05-09T12:30:17.463Z,26.88
2018-05-09T12:32:45.205Z,27.00
2018-05-09T12:35:13.008Z,27.20
2018-05-09T12:37:40.639Z,27.33
2018-05-09T12:40:08.227Z,27.05
2018-05-09T12:42:35.821Z,26.74
2018-05-09T12:45:03.445Z,26.54
2018-05-09T12:47:31.022Z,26.27
2018-05-09T12:49:58.608Z,26.17
2018-05-09T12:52:26.239Z,26.17
2018-05-09T12:54:53.822Z,26.02
2018-05-09T12:57:21.430Z,26.34
2018-05-09T12:59:49.042Z,27.27
2018-05-09T13:02:16.630Z,28.02
2018-05-09T13:04:44.215Z,28.39
2018-05-09T13:07:11.911Z,28.00
2018-05-09T13:09:39.463Z,27.71
2018-05-09T13:12:07.105Z,27.92
2018-05-09T13:14:35.286Z,27.63
2018-05-09T13:17:02.876Z,27.23
2018-05-09T13:19:30.461Z,27.40
2018-05-09T13:21:58.074Z,27.15
2018-05-09T13:24:26.854Z,26.81
2018-05-09T13:26:54.444Z,26.35
2018-05-09T13:29:22.063Z,26.24
2018-05-09T13:31:49.669Z,26.10
2018-05-09T13:34:17.259Z,26.83
2018-05-09T13:36:44.881Z,28.50
2018-05-09T13:39:12.478Z,29.62
2018-05-09T13:41:40.066Z,30.55
2018-05-09T13:44:07.714Z,31.76
2018-05-09T13:46:35.484Z,32.87
2018-05-09T13:49:03.481Z,33.18
2018-05-09T13:51:31.099Z,34.61
2018-05-09T13:53:58.773Z,33.95
2018-05-09T13:56:26.299Z,34.26
2018-05-09T13:58:53.930Z,34.68
2018-05-09T14:01:24.143Z,34.34
2018-05-09T14:03:51.753Z,33.83
2018-05-09T14:06:19.538Z,32.40
2018-05-09T14:08:47.151Z,30.33
2018-05-09T14:11:14.750Z,29.70
2018-05-09T14:13:42.414Z,29.31
2018-05-09T14:16:10.019Z,28.45
2018-05-09T14:18:37.612Z,28.32
2018-05-09T14:21:05.246Z,27.73
2018-05-09T14:23:32.838Z,27.23
2018-05-09T14:26:00.431Z,27.10
2018-05-09T14:28:28.066Z,27.17
2018-05-09T14:30:55.663Z,27.26
2018-05-09T14:33:23.301Z,27.39
2018-05-09T14:35:50.929Z,27.44
2018-05-09T14:38:18.524Z,27.26
2018-05-09T14:40:46.302Z,27.02
2018-05-09T14:43:13.874Z,26.51
2018-05-09T14:45:41.491Z,26.45
2018-05-09T14:48:09.092Z,26.33
2018-05-09T14:50:36.795Z,26.10
2018-05-09T14:53:04.391Z,26.05
2018-05-09T14:55:32.068Z,25.83
2018-05-09T14:58:00.180Z,25.81
2018-05-09T15:00:27.783Z,25.62
2018-05-09T15:02:55.378Z,25.74
2018-05-09T15:05:22.999Z,25.87
2018-05-09T15:07:50.657Z,26.04
2018-05-09T15:10:18.249Z,25.97
2018-05-09T15:12:45.878Z,26.05
2018-05-09T15:15:13.471Z,26.08
2018-05-09T15:17:41.349Z,26.25
2018-05-09T15:20:09.385Z,26.22
2018-05-09T15:22:36.973Z,26.04
2018-05-09T15:25:04.566Z,26.02
2018-05-09T15:27:32.224Z,25.89
2018-05-09T15:29:59.831Z,25.68
2018-05-09T15:32:27.423Z,25.61
2018-05-09T15:34:55.042Z,25.50
2018-05-09T15:37:22.648Z,25.54
2018-05-09T15:39:50.237Z,25.47
2018-05-09T15:42:17.864Z,25.47
2018-05-09T15:44:45.518Z,25.36
2018-05-09T15:47:13.207Z,25.24
2018-05-09T15:49:40.840Z,25.24
2018-05-09T15:52:08.446Z,25.18
2018-05-09T15:54:36.041Z,25.18
2018-05-09T15:57:03.677Z,25.12
2018-05-09T15:59:31.275Z,25.08
2018-05-09T16:01:58.869Z,25.02
2018-05-09T16:04:26.502Z,24.98
2018-05-09T16:06:54.093Z,25.04
2018-05-09T16:09:21.685Z,25.06
2018-05-09T16:11:49.522Z,25.06
2018-05-09T16:14:17.115Z,25.02
2018-05-09T16:16:44.734Z,25.07
2018-05-09T16:19:12.513Z,25.18
2018-05-09T16:21:40.104Z,25.15
2018-05-09T16:24:07.699Z,25.28
2018-05-09T16:26:35.326Z,25.28
2018-05-09T16:29:02.934Z,25.46
2018-05-09T16:31:30.535Z,25.42
2018-05-09T16:33:58.185Z,25.57
2018-05-09T16:36:25.772Z,25.42
2018-05-09T16:38:53.364Z,25.45
2018-05-09T16:41:21.006Z,25.32
2018-05-09T16:43:48.592Z,25.14
2018-05-09T16:46:16.823Z,25.15
2018-05-09T16:48:44.491Z,24.96
2018-05-09T16:51:12.102Z,24.79
2018-05-09T16:53:39.692Z,24.82
2018-05-09T16:56:07.514Z,24.81
2018-05-09T16:58:35.104Z,24.84
2018-05-09T17:01:02.707Z,24.81
2018-05-09T17:03:30.340Z,24.80
2018-05-09T17:05:57.927Z,24.64
2018-05-09T17:08:25.550Z,24.58
2018-05-09T17:10:53.166Z,24.54
2018-05-09T17:13:20.750Z,24.86
2018-05-09T17:15:48.346Z,25.19
2018-05-09T17:18:15.986Z,25.15
2018-05-09T17:20:43.581Z,25.08
2018-05-09T17:23:11.173Z,24.87
2018-05-09T17:25:38.971Z,24.69
2018-05-09T17:28:06.567Z,24.51
2018-05-09T17:30:34.251Z,24.39
2018-05-09T17:33:01.811Z,24.25
2018-05-09T17:35:29.402Z,24.18
2018-05-09T17:37:57.018Z,24.10
2018-05-09T17:40:24.669Z,24.03
2018-05-09T17:42:52.254Z,23.93
2018-05-09T17:45:19.850Z,23.84
2018-05-09T17:47:47.476Z,23.76
2018-05-09T17:50:15.074Z,23.74
2018-05-09T17:52:42.665Z,23.69
2018-05-09T17:55:10.302Z,23.63
2018-05-09T17:57:37.912Z,23.55
2018-05-09T18:00:05.518Z,23.41
2018-05-09T18:02:33.148Z,23.34
2018-05-09T18:05:00.739Z,23.20
2018-05-09T18:07:28.333Z,23.07
2018-05-09T18:09:55.955Z,22.97
2018-05-09T18:12:23.552Z,22.87
2018-05-09T18:14:51.172Z,22.82
2018-05-09T18:17:18.798Z,22.78
2018-05-09T18:19:46.394Z,22.73
2018-05-09T18:22:13.983Z,22.69
2018-05-09T18:24:41.668Z,22.65
2018-05-09T18:27:09.250Z,22.60
2018-05-09T18:29:36.843Z,22.54
2018-05-09T18:32:04.473Z,22.47
2018-05-09T18:34:32.069Z,22.40
2018-05-09T18:36:59.664Z,22.40
2018-05-09T18:39:27.282Z,22.30
2018-05-09T18:41:54.884Z,22.27
2018-05-09T18:44:22.475Z,22.22
2018-05-09T18:46:50.119Z,22.12
2018-05-09T18:49:17.726Z,22.13
2018-05-09T18:51:45.329Z,22.09
2018-05-09T18:54:13.156Z,21.98
2018-05-09T18:56:40.775Z,21.87
2018-05-09T18:59:08.398Z,21.85
2018-05-09T19:01:36.055Z,21.81
2018-05-09T19:04:03.651Z,21.74
2018-05-09T19:06:32.224Z,21.67
2018-05-09T19:08:59.823Z,21.50
2018-05-09T19:11:27.408Z,21.43
2018-05-09T19:13:54.992Z,21.38
2018-05-09T19:16:22.639Z,21.38
2018-05-09T19:18:50.287Z,21.35
2018-05-09T19:21:17.962Z,21.22
2018-05-09T19:23:45.585Z,21.17
2018-05-09T19:26:13.179Z,21.17
2018-05-09T19:28:40.827Z,21.20
2018-05-09T19:31:08.435Z,21.12
2018-05-09T19:33:36.026Z,21.08
2018-05-09T19:36:03.621Z,21.02
2018-05-09T19:38:31.250Z,20.96
2018-05-09T19:40:58.863Z,20.96
2018-05-09T19:43:26.462Z,20.87
2018-05-09T19:45:54.103Z,20.89
2018-05-09T19:48:21.692Z,20.83
2018-05-09T19:50:49.282Z,20.80
2018-05-09T19:53:16.930Z,20.75
2018-05-09T19:55:44.514Z,20.74
2018-05-09T19:58:12.104Z,20.75
2018-05-09T20:00:39.736Z,20.80
2018-05-09T20:03:07.329Z,20.72
2018-05-09T20:05:34.919Z,20.68
2018-05-09T20:08:02.545Z,20.71
2018-05-09T20:10:30.168Z,20.71
2018-05-09T20:12:57.758Z,20.66
2018-05-09T20:15:25.395Z,20.60
2018-05-09T20:17:52.985Z,20.56
2018-05-09T20:20:20.566Z,20.54
2018-05-09T20:22:48.255Z,20.49
2018-05-09T20:25:15.865Z,20.42
2018-05-09T20:27:43.592Z,20.34
2018-05-09T20:30:16.992Z,20.30
2018-05-09T20:32:44.591Z,20.29
2018-05-09T20:35:12.190Z,20.23
2018-05-09T20:37:40.053Z,20.17
2018-05-09T20:40:07.650Z,20.13
2018-05-09T20:42:35.251Z,20.08
2018-05-09T20:45:03.051Z,20.03
2018-05-09T20:47:30.639Z,19.95
2018-05-09T20:49:58.228Z,19.93
2018-05-09T20:52:25.863Z,19.84
2018-05-09T20:54:53.456Z,19.81
2018-05-09T20:57:21.055Z,19.72
2018-05-09T20:59:48.697Z,19.63
2018-05-09T21:02:16.294Z,19.51
2018-05-09T21:04:43.889Z,19.51
2018-05-09T21:07:11.512Z,19.43
2018-05-09T21:09:39.109Z,19.39
2018-05-09T21:12:09.581Z,19.37
2018-05-09T21:14:37.302Z,19.37
2018-05-09T21:17:04.853Z,19.41
2018-05-09T21:19:32.474Z,19.33
2018-05-09T21:22:00.128Z,19.39
2018-05-09T21:24:27.724Z,19.30
2018-05-09T21:26:55.330Z,19.25
2018-05-09T21:29:22.946Z,19.21
2018-05-09T21:31:50.545Z,19.28
2018-05-09T21:34:18.139Z,19.21
2018-05-09T21:36:45.759Z,19.18
2018-05-09T21:39:13.353Z,19.16
2018-05-09T21:41:40.962Z,19.13
2018-05-09T21:44:09.543Z,19.11
2018-05-09T21:46:37.189Z,19.01
2018-05-09T21:49:04.787Z,18.99
2018-05-09T21:51:32.406Z,18.98
2018-05-09T21:54:00.005Z,18.95
2018-05-09T21:56:27.802Z,18.95
2018-05-09T21:58:55.431Z,18.86
2018-05-09T22:01:23.019Z,18.88
2018-05-09T22:03:50.607Z,18.87
2018-05-09T22:06:18.245Z,18.82
2018-05-09T22:08:45.838Z,18.80
2018-05-09T22:11:13.435Z,18.75
2018-05-09T22:13:41.061Z,18.68
2018-05-09T22:16:08.653Z,18.65
2018-05-09T22:18:36.299Z,18.64
2018-05-09T22:21:03.922Z,18.62
2018-05-09T22:23:31.582Z,18.59
2018-05-09T22:25:59.158Z,18.54
2018-05-09T22:28:26.792Z,18.55
2018-05-09T22:30:54.374Z,18.45
2018-05-09T22:33:21.971Z,18.45
2018-05-09T22:38:39.774Z,18.39
2018-05-09T22:41:07.383Z,18.40
2018-05-09T22:43:34.984Z,18.40
2018-05-09T22:46:03.189Z,18.31
2018-05-09T22:48:30.864Z,18.30
2018-05-09T22:50:58.581Z,18.28
2018-05-09T22:53:26.214Z,18.27
2018-05-09T22:55:53.816Z,18.26
2018-05-09T22:58:21.533Z,18.21
2018-05-09T23:00:49.131Z,18.11
2018-05-09T23:03:16.818Z,18.08
2018-05-09T23:05:44.403Z,18.07
2018-05-09T23:08:12.022Z,17.97
2018-05-09T23:10:39.615Z,17.98
2018-05-09T23:13:07.415Z,17.84
2018-05-09T23:15:35.021Z,17.82
2018-05-09T23:18:02.639Z,17.76
2018-05-09T23:20:30.234Z,17.70
2018-05-09T23:22:57.850Z,17.75
2018-05-09T23:25:25.439Z,17.71
2018-05-09T23:27:53.051Z,17.65
2018-05-09T23:30:20.638Z,17.61
2018-05-09T23:32:48.258Z,17.49
2018-05-09T23:35:15.859Z,17.43
2018-05-09T23:37:43.464Z,17.40
2018-05-09T23:40:11.174Z,17.35
2018-05-09T23:42:41.382Z,17.37
2018-05-09T23:45:09.002Z,17.32
2018-05-09T23:47:36.736Z,17.27
2018-05-09T23:50:04.351Z,17.21
2018-05-09T23:52:31.955Z,17.17
2018-05-09T23:54:59.595Z,17.04
2018-05-09T23:57:27.218Z,17.03
2018-05-09T23:59:54.819Z,17.02
